KLEW/LEW METAR and TAF weather

Enter ICAO airport designator
Station Type Date Time Source
KLEW METAR 2019/04/18 13:56 UTC NOAA

KLEW 181356Z AUTO 17006KT 10SM BKN095 07/M02 A3025 RMK AO2 SLP259 T00721017


Station Type Date Time Source
KLEW Decoded METAR 2019/04/18 13:56 UTC NOAA

Auburn-Lewiston, ME, United States (KLEW) 44-03N 070-17W
Apr 18, 2019 - 09:56 AM EDT / 2019.04.18 1356 UTC
Wind: from the S (170 degrees) at 7 MPH (6 KT):0
Visibility: 10 mile(s):0
Sky conditions: mostly cloudy
Temperature: 45.0 F (7.2 C)
Dew Point: 28.9 F (-1.7 C)
Relative Humidity: 53%
Pressure (altimeter): 30.25 in. Hg (1024 hPa)
ob: KLEW 181356Z AUTO 17006KT 10SM BKN095 07/M02 A3025 RMK AO2 SLP259 T00721017
cycle: 14

Station Type Date Time Source
KLEW TAF UTC NOAA

Error!

Example: see airport list